aviador You're here:

ZSSS Decoded Metar

SHANGHAI in CHINA
Report Time2018-05-28 09:30:00
UTC Time2018-05-28 09:49:43
Flight Rules mvfr MVFR
Wind130° at 10 kt
W.Decomp.*RWY 18: 7.1 kt HW 7.1 kt LCW
W.Rank130° ranks 4
Current wind is above 130° avg. (8.0)
Visibility6000 m
Phenomena:N/A
Clouds:Scattered 033 Hf
Expected CloudBase > 2,400 ft AGL from Temp-Dew spread
CeilingNone
Temp28°C (ISA +13)
Dew Point22°C (70% RH)
Heat Index30.7°C
QNH1008 hPa
Density Alt2,041 ft
Elevation23 ft
Report Wrong Elevation
Raw Report
METAR ZSSS 280930Z 13005MPS 6000 SCT033 28/22 Q1008 NOSIG=

Extra information for ZSSS:More info

Metar Taf Metar & Taf Last 4 Metars F.Rules Stats Wind Profile Meteogram Temp Stats Airport Information Weather charts Add Link Nearby VenuesMetar ALERT Operation Metar Decoded Social comments